Time;durP1;ratioP1;P1;durP2;ratioP2;P2;SDS_P1;SDS_P2;PMS_P1;PMS_P2;Temp;Humidity;BMP_temperature;BMP_pressure;BME280_temperature;BME280_humidity;BME280_pressure;Samples;Min_cycle;Max_cycle;Signal;HPM_P1;HPM_P2
2023/05/02 00:02:13;;;;;;;;;;;13.70;71.00;;;;;;6264767;22;19938;-80
2023/05/02 00:04:40;;;;;;;;;;;13.70;71.20;;;;;;6263820;22;20606;-80
2023/05/02 00:07:08;;;;;;;;;;;13.70;70.80;;;;;;6264796;22;19919;-80
2023/05/02 00:09:34;;;;;;;;;;;13.70;71.10;;;;;;6238942;22;19919;-80
2023/05/02 00:12:02;;;;;;;;;;;13.70;71.60;;;;;;6238474;22;19919;-80
2023/05/02 00:14:28;;;;;;;;;;;13.70;71.50;;;;;;6238274;22;19922;-80
2023/05/02 00:16:56;;;;;;;;;;;13.70;71.30;;;;;;6235914;22;20647;-80
2023/05/02 00:19:23;;;;;;;;;;;13.70;71.30;;;;;;6241258;22;19918;-80
2023/05/02 00:21:50;;;;;;;;;;;13.70;71.10;;;;;;6241443;22;20217;-80
2023/05/02 00:24:18;;;;;;;;;;;13.70;71.60;;;;;;6242735;22;20259;-80
2023/05/02 00:26:45;;;;;;;;;;;13.60;71.70;;;;;;6262972;22;20606;-80
2023/05/02 00:29:12;;;;;;;;;;;13.70;72.00;;;;;;6239541;22;19929;-80
2023/05/02 00:31:42;;;;;;;;;;;13.60;71.30;;;;;;6261772;22;19919;-80
2023/05/02 00:34:09;;;;;;;;;;;13.70;71.20;;;;;;6235755;22;19923;-80
2023/05/02 00:36:36;;;;;;;;;;;13.60;71.10;;;;;;6261529;22;19973;-80
2023/05/02 00:39:03;;;;;;;;;;;13.60;70.70;;;;;;6268874;22;20364;-80
2023/05/02 00:41:30;;;;;;;;;;;13.70;70.70;;;;;;6240970;22;19918;-80
2023/05/02 00:43:57;;;;;;;;;;;13.60;70.30;;;;;;6237999;22;20366;-80
2023/05/02 00:46:24;;;;;;;;;;;13.60;70.60;;;;;;6236821;22;19925;-80
2023/05/02 00:48:52;;;;;;;;;;;13.60;70.90;;;;;;6238034;22;19918;-80
2023/05/02 00:51:19;;;;;;;;;;;13.60;71.20;;;;;;6241696;22;19919;-80
2023/05/02 00:53:46;;;;;;;;;;;13.60;71.00;;;;;;6263802;22;20357;-80
2023/05/02 00:56:14;;;;;;;;;;;13.60;71.00;;;;;;6239579;22;19918;-80
2023/05/02 00:58:41;;;;;;;;;;;13.60;71.40;;;;;;6268833;22;19930;-80
2023/05/02 01:01:28;;;;;;;;;;;13.50;71.00;;;;;;6266783;22;19923;-80
2023/05/02 01:04:02;;;;;;;;;;;13.50;71.10;;;;;;6263461;22;20001;-80
2023/05/02 01:06:41;;;;;;;;;;;13.50;71.10;;;;;;6267898;22;19973;-80
2023/05/02 01:09:11;;;;;;;;;;;13.50;70.60;;;;;;6296188;22;19919;-80
2023/05/02 01:11:47;;;;;;;;;;;13.50;70.70;;;;;;6239638;22;20249;-80
2023/05/02 01:14:14;;;;;;;;;;;13.50;70.90;;;;;;6264447;22;19930;-80
2023/05/02 01:16:44;;;;;;;;;;;13.50;70.70;;;;;;6260998;22;19918;-80
2023/05/02 01:19:18;;;;;;;;;;;13.50;71.10;;;;;;6235326;22;20273;-80
2023/05/02 01:21:45;;;;;;;;;;;13.50;71.80;;;;;;6260598;22;20330;-80
2023/05/02 01:24:21;;;;;;;;;;;13.50;71.00;;;;;;6259533;22;19918;-80
2023/05/02 01:26:48;;;;;;;;;;;13.50;70.80;;;;;;6238938;22;19925;-80
2023/05/02 01:29:16;;;;;;;;;;;13.50;71.70;;;;;;6236096;22;20341;-80
2023/05/02 01:31:45;;;;;;;;;;;13.50;71.70;;;;;;6236443;22;20350;-80
2023/05/02 01:34:12;;;;;;;;;;;13.50;71.90;;;;;;6241326;22;19915;-80
2023/05/02 01:36:44;;;;;;;;;;;13.40;71.50;;;;;;6236673;22;19953;-80
2023/05/02 01:39:21;;;;;;;;;;;13.40;72.40;;;;;;6236956;22;20006;-80
2023/05/02 01:41:50;;;;;;;;;;;13.40;72.30;;;;;;6290851;22;20358;-80
2023/05/02 01:44:20;;;;;;;;;;;13.40;72.10;;;;;;6264241;22;20024;-80
2023/05/02 01:46:48;;;;;;;;;;;13.40;72.80;;;;;;6238702;22;20028;-80
2023/05/02 01:49:16;;;;;;;;;;;13.30;72.30;;;;;;6238047;22;19965;-80
2023/05/02 01:51:46;;;;;;;;;;;13.30;72.30;;;;;;6237335;22;19976;-80
2023/05/02 01:54:14;;;;;;;;;;;13.30;73.00;;;;;;6265627;22;19989;-80
2023/05/02 01:56:42;;;;;;;;;;;13.30;73.10;;;;;;6237541;22;20410;-80
2023/05/02 01:59:14;;;;;;;;;;;13.30;73.10;;;;;;6237729;22;19919;-80
2023/05/02 02:01:42;;;;;;;;;;;13.30;73.00;;;;;;6267034;22;20349;-80
2023/05/02 02:04:11;;;;;;;;;;;13.20;73.70;;;;;;6238370;22;20041;-80
2023/05/02 02:06:38;;;;;;;;;;;13.20;73.80;;;;;;6236863;22;19919;-80
2023/05/02 02:09:05;;;;;;;;;;;13.20;74.00;;;;;;6237323;22;19926;-80
2023/05/02 02:11:32;;;;;;;;;;;13.20;74.10;;;;;;6237797;22;20257;-80
2023/05/02 02:14:03;;;;;;;;;;;13.10;73.80;;;;;;6213868;22;1168210;-80
2023/05/02 02:16:32;;;;;;;;;;;13.10;73.90;;;;;;6272381;22;19922;-80
2023/05/02 02:19:03;;;;;;;;;;;13.10;74.70;;;;;;6236031;22;19933;-80
2023/05/02 02:21:31;;;;;;;;;;;13.00;74.40;;;;;;6235772;22;19918;-80
2023/05/02 02:24:00;;;;;;;;;;;12.90;75.30;;;;;;6241489;22;20251;-80
2023/05/02 02:26:27;;;;;;;;;;;13.00;75.10;;;;;;6264443;22;19926;-80
2023/05/02 02:28:55;;;;;;;;;;;13.00;75.10;;;;;;6264905;22;19918;-80
2023/05/02 02:31:24;;;;;;;;;;;12.90;75.10;;;;;;6239717;22;20404;-80
2023/05/02 02:33:51;;;;;;;;;;;12.80;75.40;;;;;;6242160;22;19918;-80
2023/05/02 02:36:34;;;;;;;;;;;12.90;75.90;;;;;;6239069;22;19919;-80
2023/05/02 02:39:19;;;;;;;;;;;12.90;76.00;;;;;;6241751;22;19915;-80
2023/05/02 02:41:54;;;;;;;;;;;12.80;76.70;;;;;;6237338;22;19919;-80
2023/05/02 02:44:31;;;;;;;;;;;12.60;76.70;;;;;;6239037;22;20352;-80
2023/05/02 02:47:04;;;;;;;;;;;12.70;77.20;;;;;;6238175;22;19918;-80
2023/05/02 02:49:46;;;;;;;;;;;12.70;77.40;;;;;;6264313;22;19918;-80
2023/05/02 02:52:20;;;;;;;;;;;12.60;77.40;;;;;;6264398;22;19983;-80
2023/05/02 02:54:58;;;;;;;;;;;12.60;77.50;;;;;;6239919;22;19938;-80
2023/05/02 02:57:44;;;;;;;;;;;12.60;77.90;;;;;;6241450;22;19941;-80
2023/05/02 03:00:14;;;;;;;;;;;12.50;78.50;;;;;;6240232;22;19919;-80
2023/05/02 03:02:42;;;;;;;;;;;12.60;78.40;;;;;;6265857;22;20399;-80
2023/05/02 03:05:10;;;;;;;;;;;12.50;78.90;;;;;;6264725;22;19919;-80
2023/05/02 03:07:36;;;;;;;;;;;12.60;78.90;;;;;;6239322;22;19919;-80
2023/05/02 03:10:04;;;;;;;;;;;12.60;79.70;;;;;;6240865;22;20374;-80
2023/05/02 03:12:33;;;;;;;;;;;12.60;79.60;;;;;;6243731;22;19919;-80
2023/05/02 03:15:23;;;;;;;;;;;12.60;80.30;;;;;;6239786;22;20330;-80
2023/05/02 03:17:50;;;;;;;;;;;12.60;79.90;;;;;;6163794;22;20348;-80
2023/05/02 03:20:18;;;;;;;;;;;12.50;80.00;;;;;;6240907;22;20400;-80
2023/05/02 03:22:45;;;;;;;;;;;12.50;80.20;;;;;;6245587;22;19923;-79
2023/05/02 03:25:12;;;;;;;;;;;12.50;80.40;;;;;;6241059;22;20605;-80
2023/05/02 03:27:44;;;;;;;;;;;12.50;80.40;;;;;;6263329;22;19919;-80
2023/05/02 03:30:11;;;;;;;;;;;12.50;80.40;;;;;;6263641;22;19962;-80
2023/05/02 03:32:38;;;;;;;;;;;12.50;80.50;;;;;;6237198;22;20303;-80
2023/05/02 03:35:06;;;;;;;;;;;12.50;80.70;;;;;;6238101;22;20258;-80
2023/05/02 03:37:38;;;;;;;;;;;12.50;81.20;;;;;;6242136;22;19925;-80
2023/05/02 03:40:05;;;;;;;;;;;12.50;81.00;;;;;;6238523;22;19956;-80
2023/05/02 03:42:40;;;;;;;;;;;12.50;81.40;;;;;;6266477;22;20356;-80
2023/05/02 03:45:18;;;;;;;;;;;12.50;81.60;;;;;;6240427;22;20338;-80
2023/05/02 03:47:47;;;;;;;;;;;12.40;81.60;;;;;;6239237;22;19946;-80
2023/05/02 03:50:14;;;;;;;;;;;12.40;82.30;;;;;;6243349;22;20349;-80
2023/05/02 03:52:43;;;;;;;;;;;12.40;82.40;;;;;;6237826;22;20017;-80
2023/05/02 03:55:11;;;;;;;;;;;12.40;82.40;;;;;;6242161;22;19934;-80
2023/05/02 03:57:38;;;;;;;;;;;12.40;82.60;;;;;;6262592;22;20326;-80
2023/05/02 04:00:06;;;;;;;;;;;12.50;82.60;;;;;;6239081;22;19925;-80
2023/05/02 04:02:42;;;;;;;;;;;12.40;83.10;;;;;;6263335;22;19926;-80
2023/05/02 04:05:13;;;;;;;;;;;12.40;83.50;;;;;;6238210;22;19919;-80
2023/05/02 04:07:40;;;;;;;;;;;12.50;83.80;;;;;;6243401;22;19923;-81
2023/05/02 04:10:15;;;;;;;;;;;12.50;83.70;;;;;;6241101;22;20318;-80
2023/05/02 04:12:45;;;;;;;;;;;12.50;83.50;;;;;;6239558;22;20015;-80
2023/05/02 04:15:14;;;;;;;;;;;12.50;83.70;;;;;;6232215;22;20321;-80
2023/05/02 04:17:41;;;;;;;;;;;12.50;84.10;;;;;;6207254;22;19934;-80
2023/05/02 04:20:10;;;;;;;;;;;12.50;84.60;;;;;;6207922;22;19927;-80
2023/05/02 04:22:41;;;;;;;;;;;12.50;84.50;;;;;;6211262;22;19919;-80
2023/05/02 04:25:08;;;;;;;;;;;12.50;85.00;;;;;;6213719;22;19919;-80
2023/05/02 04:27:38;;;;;;;;;;;12.40;85.10;;;;;;6210698;22;19919;-80
2023/05/02 04:30:09;;;;;;;;;;;12.50;84.90;;;;;;6205989;22;19919;-79
2023/05/02 04:32:37;;;;;;;;;;;12.50;85.10;;;;;;6207941;22;19946;-79
2023/05/02 04:35:05;;;;;;;;;;;12.60;85.60;;;;;;6232193;22;19926;-80
2023/05/02 04:37:33;;;;;;;;;;;12.70;86.00;;;;;;6207613;22;19919;-78
2023/05/02 04:39:59;;;;;;;;;;;12.70;85.60;;;;;;6210811;22;19938;-80
2023/05/02 04:42:29;;;;;;;;;;;12.80;85.40;;;;;;6209105;22;20006;-79
2023/05/02 04:45:28;;;;;;;;;;;12.80;85.70;;;;;;6191632;22;19919;-79
2023/05/02 04:47:55;;;;;;;;;;;12.90;85.60;;;;;;6210362;22;19942;-80
2023/05/02 04:50:22;;;;;;;;;;;12.90;85.90;;;;;;6206353;22;19926;-79
2023/05/02 04:52:50;;;;;;;;;;;13.00;85.80;;;;;;6207822;22;19919;-79
2023/05/02 04:55:18;;;;;;;;;;;13.00;86.20;;;;;;6207428;22;19981;-79
2023/05/02 04:57:45;;;;;;;;;;;13.10;86.00;;;;;;6210453;22;19950;-79
2023/05/02 05:00:15;;;;;;;;;;;13.20;86.00;;;;;;6211420;22;19919;-79
2023/05/02 05:02:42;;;;;;;;;;;13.30;86.30;;;;;;6211507;22;20283;-79
2023/05/02 05:05:12;;;;;;;;;;;13.40;85.50;;;;;;6209282;22;20304;-79
2023/05/02 05:07:39;;;;;;;;;;;13.50;85.80;;;;;;6233202;22;20370;-79
2023/05/02 05:10:07;;;;;;;;;;;13.50;85.50;;;;;;6207522;22;19925;-79
2023/05/02 05:12:40;;;;;;;;;;;13.60;86.10;;;;;;6212825;22;20332;-79
2023/05/02 05:15:08;;;;;;;;;;;13.70;85.30;;;;;;6210347;22;19919;-79
2023/05/02 05:17:36;;;;;;;;;;;13.70;85.50;;;;;;6211726;22;20450;-79
2023/05/02 05:20:04;;;;;;;;;;;13.80;85.60;;;;;;6237169;22;19923;-80
2023/05/02 05:22:40;;;;;;;;;;;13.80;85.80;;;;;;6234299;22;20493;-79
2023/05/02 05:25:09;;;;;;;;;;;13.90;86.50;;;;;;6212324;22;19957;-79
2023/05/02 05:27:37;;;;;;;;;;;14.00;86.10;;;;;;6213980;22;19925;-79
2023/05/02 05:30:05;;;;;;;;;;;14.10;86.30;;;;;;6235509;22;20386;-78
2023/05/02 05:32:32;;;;;;;;;;;14.10;86.90;;;;;;6234730;22;20029;-78
2023/05/02 05:34:59;;;;;;;;;;;14.10;85.30;;;;;;6211667;22;20251;-78
2023/05/02 05:37:27;;;;;;;;;;;14.20;85.90;;;;;;6235631;22;19919;-80
2023/05/02 05:39:56;;;;;;;;;;;14.30;84.80;;;;;;6236778;22;20409;-78
2023/05/02 05:42:24;;;;;;;;;;;14.30;84.20;;;;;;6233875;22;20267;-79
2023/05/02 05:44:55;;;;;;;;;;;14.40;84.10;;;;;;6210734;22;20248;-80
2023/05/02 05:47:23;;;;;;;;;;;14.50;84.00;;;;;;6238637;22;19919;-80
2023/05/02 05:49:54;;;;;;;;;;;14.60;83.80;;;;;;6222225;22;19915;-79
2023/05/02 05:52:25;;;;;;;;;;;14.70;83.60;;;;;;6249993;22;20022;-80
2023/05/02 05:54:55;;;;;;;;;;;14.70;84.20;;;;;;6214409;22;19919;-80
2023/05/02 05:57:23;;;;;;;;;;;14.80;84.80;;;;;;6210945;22;20386;-80
2023/05/02 05:59:52;;;;;;;;;;;15.00;84.30;;;;;;6236552;22;19992;-80
2023/05/02 06:02:20;;;;;;;;;;;15.20;84.40;;;;;;6237624;22;19919;-79
2023/05/02 06:04:47;;;;;;;;;;;15.40;83.40;;;;;;6211707;22;19954;-79
2023/05/02 06:07:16;;;;;;;;;;;15.60;81.20;;;;;;6234078;22;19926;-78
2023/05/02 06:09:44;;;;;;;;;;;15.70;80.90;;;;;;6208507;22;19919;-78
2023/05/02 06:12:12;;;;;;;;;;;15.90;81.10;;;;;;6210010;22;19923;-79
2023/05/02 06:14:39;;;;;;;;;;;16.00;80.00;;;;;;6210549;22;19923;-80
2023/05/02 06:17:07;;;;;;;;;;;16.00;79.80;;;;;;6210450;22;19919;-80
2023/05/02 06:19:34;;;;;;;;;;;15.90;79.50;;;;;;6209888;22;19925;-80
2023/05/02 06:22:01;;;;;;;;;;;15.80;79.50;;;;;;6235472;22;19919;-79
2023/05/02 06:24:28;;;;;;;;;;;15.80;79.90;;;;;;6208073;22;19983;-80
2023/05/02 06:26:55;;;;;;;;;;;15.80;80.50;;;;;;6260774;22;19919;-80
2023/05/02 06:29:22;;;;;;;;;;;15.80;79.80;;;;;;6209711;22;19997;-80
2023/05/02 06:31:50;;;;;;;;;;;15.80;79.30;;;;;;6208141;22;20258;-79
2023/05/02 06:34:17;;;;;;;;;;;15.80;79.50;;;;;;6235557;22;19919;-80
2023/05/02 06:36:44;;;;;;;;;;;15.80;79.40;;;;;;6210528;22;20328;-80
2023/05/02 06:39:11;;;;;;;;;;;15.80;79.70;;;;;;6235026;22;19920;-79
2023/05/02 06:41:38;;;;;;;;;;;16.00;78.50;;;;;;6208666;22;20021;-79
2023/05/02 06:44:05;;;;;;;;;;;16.20;78.20;;;;;;6212289;22;20251;-78
2023/05/02 06:46:32;;;;;;;;;;;16.50;77.50;;;;;;6210479;22;19919;-80
2023/05/02 06:48:59;;;;;;;;;;;16.70;76.00;;;;;;6236045;22;19919;-79
2023/05/02 06:51:26;;;;;;;;;;;16.90;76.10;;;;;;6213137;22;20386;-80
2023/05/02 06:53:53;;;;;;;;;;;17.00;75.90;;;;;;6214515;22;19919;-79
2023/05/02 06:56:20;;;;;;;;;;;16.90;75.00;;;;;;6205503;22;20370;-80
2023/05/02 06:58:48;;;;;;;;;;;16.90;76.70;;;;;;6210214;22;19919;-79
2023/05/02 07:01:15;;;;;;;;;;;17.10;77.60;;;;;;6234265;22;19919;-78
2023/05/02 07:03:42;;;;;;;;;;;17.20;77.10;;;;;;6209275;22;20386;-78
2023/05/02 07:06:10;;;;;;;;;;;17.30;75.90;;;;;;6209090;22;20007;-79
2023/05/02 07:08:37;;;;;;;;;;;17.40;74.30;;;;;;6230700;22;20103;-81
2023/05/02 07:11:04;;;;;;;;;;;17.90;73.60;;;;;;6237594;22;19919;-76
2023/05/02 07:13:31;;;;;;;;;;;18.20;72.10;;;;;;6235136;22;19915;-80
2023/05/02 07:15:58;;;;;;;;;;;18.40;71.30;;;;;;6209739;22;19926;-78
2023/05/02 07:18:25;;;;;;;;;;;18.50;71.30;;;;;;6234662;22;19919;-80
2023/05/02 07:20:53;;;;;;;;;;;18.50;70.80;;;;;;6209224;22;19938;-79
2023/05/02 07:23:20;;;;;;;;;;;18.10;72.50;;;;;;6208060;22;19923;-79
2023/05/02 07:25:50;;;;;;;;;;;18.00;72.50;;;;;;6235763;22;19926;-79
2023/05/02 07:28:16;;;;;;;;;;;18.40;71.30;;;;;;6212776;22;19919;-79
2023/05/02 07:30:44;;;;;;;;;;;18.30;70.50;;;;;;6210264;22;19950;-79
2023/05/02 07:33:10;;;;;;;;;;;18.10;70.90;;;;;;6212730;22;19919;-80
2023/05/02 07:35:37;;;;;;;;;;;18.10;70.60;;;;;;6210311;22;19950;-80
2023/05/02 07:38:04;;;;;;;;;;;18.10;70.80;;;;;;6235179;22;19919;-79
2023/05/02 07:40:31;;;;;;;;;;;18.40;70.50;;;;;;6236246;22;19941;-80
2023/05/02 07:43:01;;;;;;;;;;;18.40;71.00;;;;;;6212880;22;19919;-79
2023/05/02 07:45:28;;;;;;;;;;;18.30;71.00;;;;;;6210362;22;20351;-80
2023/05/02 07:47:56;;;;;;;;;;;18.30;71.30;;;;;;6208168;22;19920;-80
2023/05/02 07:50:23;;;;;;;;;;;18.20;72.00;;;;;;6207824;22;20418;-78
2023/05/02 07:52:50;;;;;;;;;;;18.30;72.00;;;;;;6211188;22;19919;-79
2023/05/02 07:55:17;;;;;;;;;;;18.90;70.30;;;;;;6207972;22;19930;-80
2023/05/02 07:57:44;;;;;;;;;;;19.30;69.90;;;;;;6208108;22;20343;-81
2023/05/02 08:00:11;;;;;;;;;;;19.60;69.30;;;;;;6234575;22;20393;-78
2023/05/02 08:02:40;;;;;;;;;;;19.70;68.10;;;;;;6262008;22;19919;-80
2023/05/02 08:05:07;;;;;;;;;;;19.60;68.00;;;;;;6212397;22;19954;-79
2023/05/02 08:07:40;;;;;;;;;;;19.60;68.60;;;;;;5026377;27;2162544;-81
2023/05/02 08:10:07;;;;;;;;;;;19.80;67.90;;;;;;5066701;27;20516;-78
2023/05/02 08:12:39;;;;;;;;;;;19.70;67.80;;;;;;5080313;27;19931;-78
2023/05/02 08:15:06;;;;;;;;;;;19.80;67.70;;;;;;5103049;27;19932;-79
2023/05/02 08:17:34;;;;;;;;;;;19.80;67.50;;;;;;5061178;27;20146;-79
2023/05/02 08:20:01;;;;;;;;;;;20.00;67.60;;;;;;5074372;27;20374;-80
2023/05/02 08:22:28;;;;;;;;;;;20.00;67.70;;;;;;5072889;27;20291;-79
2023/05/02 08:24:55;;;;;;;;;;;20.10;67.60;;;;;;5096961;27;22151;-79
2023/05/02 08:27:22;;;;;;;;;;;20.00;65.50;;;;;;5095457;27;19931;-78
2023/05/02 08:29:49;;;;;;;;;;;20.00;65.60;;;;;;5106964;27;19932;-78
2023/05/02 08:32:17;;;;;;;;;;;19.90;64.20;;;;;;5080476;27;19962;-78
2023/05/02 08:34:44;;;;;;;;;;;19.70;65.50;;;;;;5070130;27;19931;-80
2023/05/02 08:37:12;;;;;;;;;;;19.70;66.20;;;;;;5070633;27;19962;-76
2023/05/02 08:39:39;;;;;;;;;;;20.10;66.60;;;;;;5081932;27;19931;-77
2023/05/02 08:42:09;;;;;;;;;;;20.70;66.00;;;;;;5086114;27;19949;-79
2023/05/02 08:44:36;;;;;;;;;;;20.90;64.90;;;;;;5073872;27;19930;-77
2023/05/02 08:47:03;;;;;;;;;;;21.00;64.60;;;;;;5072826;27;19954;-80
2023/05/02 08:49:31;;;;;;;;;;;21.00;63.40;;;;;;5065123;27;20420;-80
2023/05/02 08:52:03;;;;;;;;;;;20.80;63.90;;;;;;5110524;27;20430;-80
2023/05/02 08:54:30;;;;;;;;;;;20.40;63.90;;;;;;5078543;27;20506;-76
2023/05/02 08:56:58;;;;;;;;;;;20.30;64.30;;;;;;5069249;27;19959;-77
2023/05/02 08:59:25;;;;;;;;;;;20.30;65.10;;;;;;5060094;28;19978;-78
2023/05/02 09:01:54;;;;;;;;;;;20.30;65.60;;;;;;5063622;28;19939;-76
2023/05/02 09:04:23;;;;;;;;;;;20.40;65.30;;;;;;5054320;28;20519;-79
2023/05/02 09:06:50;;;;;;;;;;;20.60;64.30;;;;;;5052059;28;20462;-77
2023/05/02 09:09:17;;;;;;;;;;;20.70;64.90;;;;;;5057575;28;19932;-77
2023/05/02 09:11:49;;;;;;;;;;;21.00;65.30;;;;;;5053495;28;19932;-78
2023/05/02 09:14:16;;;;;;;;;;;21.10;63.70;;;;;;5051963;28;19932;-78
2023/05/02 09:16:44;;;;;;;;;;;21.30;64.40;;;;;;5054470;28;22411;-78
2023/05/02 09:19:22;;;;;;;;;;;21.50;63.40;;;;;;5038320;28;19932;-79
2023/05/02 09:21:49;;;;;;;;;;;21.40;63.00;;;;;;5040375;28;19938;-79
2023/05/02 09:24:17;;;;;;;;;;;21.60;62.60;;;;;;5062923;28;19932;-79
2023/05/02 09:26:57;;;;;;;;;;;21.50;61.30;;;;;;5016266;28;22162;-77
2023/05/02 09:29:25;;;;;;;;;;;21.40;61.70;;;;;;5051396;28;19939;-78
2023/05/02 09:31:52;;;;;;;;;;;21.50;62.70;;;;;;5033150;28;20432;-78
2023/05/02 09:34:26;;;;;;;;;;;21.60;62.60;;;;;;5033210;28;20408;-79
2023/05/02 09:36:54;;;;;;;;;;;21.70;62.30;;;;;;5038915;28;20160;-79
2023/05/02 09:39:23;;;;;;;;;;;21.50;62.00;;;;;;5046500;28;19932;-78
2023/05/02 09:41:52;;;;;;;;;;;21.80;62.60;;;;;;5024234;28;19932;-79
2023/05/02 09:44:20;;;;;;;;;;;21.10;63.30;;;;;;5044743;28;19932;-78
2023/05/02 09:46:49;;;;;;;;;;;20.90;62.80;;;;;;5028858;28;19939;-77
2023/05/02 09:49:19;;;;;;;;;;;20.90;63.20;;;;;;5068016;28;20317;-78
2023/05/02 09:51:46;;;;;;;;;;;21.10;63.60;;;;;;5026204;28;19965;-77
2023/05/02 09:54:32;;;;;;;;;;;21.30;63.20;;;;;;5033928;28;20401;-79
2023/05/02 09:57:00;;;;;;;;;;;21.50;62.90;;;;;;5044693;28;19932;-79
2023/05/02 09:59:27;;;;;;;;;;;21.80;62.60;;;;;;5037514;28;19933;-79
2023/05/02 10:01:55;;;;;;;;;;;22.00;62.60;;;;;;5021757;28;19933;-77
2023/05/02 10:04:23;;;;;;;;;;;22.00;62.30;;;;;;5020197;28;20100;-78
2023/05/02 10:06:51;;;;;;;;;;;22.00;62.10;;;;;;5022052;28;20038;-79
2023/05/02 10:09:20;;;;;;;;;;;22.10;62.60;;;;;;5032480;28;20307;-79
2023/05/02 10:11:52;;;;;;;;;;;22.20;63.20;;;;;;5026362;28;20027;-79
2023/05/02 10:14:21;;;;;;;;;;;22.30;62.50;;;;;;5035101;28;20354;-79
2023/05/02 10:16:59;;;;;;;;;;;22.30;62.00;;;;;;5004646;28;20540;-78
2023/05/02 10:19:29;;;;;;;;;;;22.30;62.50;;;;;;5027411;28;19932;-79
2023/05/02 10:21:57;;;;;;;;;;;22.50;62.20;;;;;;5041796;28;20601;-78
2023/05/02 10:24:24;;;;;;;;;;;22.40;61.60;;;;;;5034109;28;20638;-79
2023/05/02 10:26:52;;;;;;;;;;;22.40;62.30;;;;;;4990146;28;22195;-79
2023/05/02 10:29:19;;;;;;;;;;;22.40;62.30;;;;;;5027054;28;20727;-79
2023/05/02 10:31:47;;;;;;;;;;;22.60;62.40;;;;;;5059140;28;19967;-78
2023/05/02 10:34:15;;;;;;;;;;;22.90;63.10;;;;;;5041849;28;20017;-79
2023/05/02 10:36:42;;;;;;;;;;;22.90;62.00;;;;;;5051954;28;20476;-79
2023/05/02 10:39:09;;;;;;;;;;;23.00;62.20;;;;;;5049150;28;19938;-79
2023/05/02 10:41:37;;;;;;;;;;;23.00;61.40;;;;;;5045069;28;19954;-78
2023/05/02 10:44:06;;;;;;;;;;;22.90;62.00;;;;;;5023806;28;20378;-78
2023/05/02 10:46:34;;;;;;;;;;;23.10;61.70;;;;;;5027233;28;19951;-79
2023/05/02 10:49:06;;;;;;;;;;;23.00;61.20;;;;;;5036148;27;19908;-79
2023/05/02 10:51:33;;;;;;;;;;;22.90;60.90;;;;;;5036948;28;20417;-79
2023/05/02 10:54:19;;;;;;;;;;;22.80;61.40;;;;;;5027624;28;19939;-77
2023/05/02 10:57:01;;;;;;;;;;;22.80;61.90;;;;;;5028035;27;20518;-79
2023/05/02 10:59:30;;;;;;;;;;;22.90;61.90;;;;;;5039866;28;22265;-79
2023/05/02 11:01:57;;;;;;;;;;;22.70;61.50;;;;;;5036693;28;19932;-78
2023/05/02 11:04:24;;;;;;;;;;;22.50;62.70;;;;;;5040239;28;20623;-78
2023/05/02 11:07:01;;;;;;;;;;;22.40;61.50;;;;;;5040574;28;20042;-79
2023/05/02 11:09:28;;;;;;;;;;;22.40;61.50;;;;;;5047273;28;19931;-77
2023/05/02 11:11:56;;;;;;;;;;;22.80;60.80;;;;;;5037984;28;20246;-78
2023/05/02 11:14:32;;;;;;;;;;;22.80;60.40;;;;;;5053876;28;19943;-78
2023/05/02 11:17:08;;;;;;;;;;;22.60;61.40;;;;;;5033865;28;19931;-77
2023/05/02 11:19:35;;;;;;;;;;;22.50;62.70;;;;;;5037492;28;20399;-78
2023/05/02 11:22:28;;;;;;;;;;;22.60;61.50;;;;;;5048256;28;19924;-79
2023/05/02 11:24:55;;;;;;;;;;;22.80;59.30;;;;;;5052871;28;20031;-79
2023/05/02 11:27:38;;;;;;;;;;;23.00;57.70;;;;;;5051309;28;20380;-78
2023/05/02 11:30:05;;;;;;;;;;;23.10;57.70;;;;;;5044052;28;19978;-78
2023/05/02 11:32:44;;;;;;;;;;;23.10;58.10;;;;;;5051694;28;19932;-79
2023/05/02 11:35:19;;;;;;;;;;;23.30;58.10;;;;;;5044712;28;20417;-78
2023/05/02 11:37:53;;;;;;;;;;;23.10;56.60;;;;;;5043979;28;19955;-80
2023/05/02 11:40:20;;;;;;;;;;;23.00;58.00;;;;;;5023244;28;19932;-79
2023/05/02 11:42:47;;;;;;;;;;;23.20;56.80;;;;;;5028850;28;20077;-79
2023/05/02 11:45:15;;;;;;;;;;;23.10;57.50;;;;;;5043028;28;20072;-78
2023/05/02 11:47:42;;;;;;;;;;;23.00;57.90;;;;;;5039702;28;19932;-78
2023/05/02 11:50:09;;;;;;;;;;;23.10;57.70;;;;;;5036387;28;19985;-78
2023/05/02 11:52:37;;;;;;;;;;;23.30;57.40;;;;;;5053658;28;19953;-79
2023/05/02 11:55:05;;;;;;;;;;;23.20;58.50;;;;;;5038713;28;19932;-78
2023/05/02 11:57:37;;;;;;;;;;;23.50;56.30;;;;;;5002891;28;19933;-79
2023/05/02 12:00:12;;;;;;;;;;;23.50;56.20;;;;;;5004023;28;19925;-79
2023/05/02 12:02:40;;;;;;;;;;;23.40;56.00;;;;;;5034086;28;20069;-79
2023/05/02 12:05:08;;;;;;;;;;;23.40;57.30;;;;;;5029851;28;19986;-78
2023/05/02 12:07:46;;;;;;;;;;;23.30;56.00;;;;;;5037469;28;22224;-79
2023/05/02 12:10:16;;;;;;;;;;;23.20;56.60;;;;;;5017362;28;20391;-79
2023/05/02 12:12:43;;;;;;;;;;;23.30;55.10;;;;;;4996496;28;20020;-80
2023/05/02 12:15:11;;;;;;;;;;;23.50;55.50;;;;;;4986204;28;19933;-79
2023/05/02 12:17:39;;;;;;;;;;;23.80;56.40;;;;;;4998662;28;19964;-80
2023/05/02 12:20:07;;;;;;;;;;;23.80;55.00;;;;;;5014161;28;21927;-79
2023/05/02 12:22:35;;;;;;;;;;;23.80;55.00;;;;;;5017541;28;19932;-79
2023/05/02 12:25:04;;;;;;;;;;;23.70;54.60;;;;;;4966218;28;19930;-79
2023/05/02 12:27:37;;;;;;;;;;;23.60;55.90;;;;;;4951934;28;19936;-80
2023/05/02 12:30:04;;;;;;;;;;;23.70;56.40;;;;;;4968984;28;19925;-79
2023/05/02 12:32:35;;;;;;;;;;;23.80;56.80;;;;;;4962995;28;20025;-79
2023/05/02 12:35:04;;;;;;;;;;;23.70;56.40;;;;;;4973087;28;19926;-79
2023/05/02 12:37:32;;;;;;;;;;;23.70;56.40;;;;;;4963305;28;19910;-79
2023/05/02 12:40:00;;;;;;;;;;;23.50;55.40;;;;;;4981785;28;19941;-79
2023/05/02 12:42:29;;;;;;;;;;;23.50;55.20;;;;;;5019169;28;19932;-80
2023/05/02 12:44:56;;;;;;;;;;;23.30;56.00;;;;;;5025641;28;19929;-79
2023/05/02 12:47:25;;;;;;;;;;;23.20;56.40;;;;;;4992809;28;19932;-80
2023/05/02 12:49:57;;;;;;;;;;;23.40;57.10;;;;;;5017910;28;19928;-80
2023/05/02 12:52:44;;;;;;;;;;;23.80;56.70;;;;;;5012399;28;20451;-79
2023/05/02 12:55:18;;;;;;;;;;;24.00;56.30;;;;;;5023827;28;22522;-79
2023/05/02 12:58:00;;;;;;;;;;;23.90;55.60;;;;;;5061997;28;19944;-79
2023/05/02 13:00:33;;;;;;;;;;;23.90;55.70;;;;;;5035705;28;19939;-79
2023/05/02 13:03:00;;;;;;;;;;;23.80;55.20;;;;;;5046973;28;19939;-79
2023/05/02 13:05:36;;;;;;;;;;;23.90;56.80;;;;;;5061237;28;20022;-80
2023/05/02 13:08:04;;;;;;;;;;;23.70;56.00;;;;;;5049464;28;19924;-79
2023/05/02 13:10:32;;;;;;;;;;;23.30;56.30;;;;;;5054305;28;19954;-79
2023/05/02 13:13:00;;;;;;;;;;;23.20;56.50;;;;;;5044261;28;19932;-79
2023/05/02 13:15:27;;;;;;;;;;;23.00;56.30;;;;;;5046157;28;19954;-79
2023/05/02 13:17:55;;;;;;;;;;;23.00;56.70;;;;;;5048418;28;19931;-79
2023/05/02 13:20:23;;;;;;;;;;;23.00;57.20;;;;;;5047249;28;20594;-80
2023/05/02 13:22:51;;;;;;;;;;;23.00;56.60;;;;;;5030982;28;20859;-80
2023/05/02 13:25:20;;;;;;;;;;;23.10;56.90;;;;;;5068639;28;20817;-79
2023/05/02 13:27:49;;;;;;;;;;;23.10;56.70;;;;;;5033297;28;19938;-78
2023/05/02 13:30:23;;;;;;;;;;;23.20;55.80;;;;;;5071857;27;19996;-79
2023/05/02 13:32:58;;;;;;;;;;;23.10;55.00;;;;;;5085648;28;20030;-80
2023/05/02 13:35:26;;;;;;;;;;;23.10;54.90;;;;;;5071096;28;19928;-79
2023/05/02 13:37:54;;;;;;;;;;;23.00;54.70;;;;;;5053347;28;20527;-79
2023/05/02 13:40:21;;;;;;;;;;;23.00;55.30;;;;;;5041378;28;20315;-79
2023/05/02 13:42:48;;;;;;;;;;;23.00;55.70;;;;;;5038905;28;19927;-80
2023/05/02 13:45:16;;;;;;;;;;;23.00;55.70;;;;;;5037443;28;19978;-79
2023/05/02 13:47:45;;;;;;;;;;;23.00;55.40;;;;;;5067685;28;20410;-79
2023/05/02 13:50:12;;;;;;;;;;;22.90;55.60;;;;;;5055104;28;19932;-79
2023/05/02 13:52:39;;;;;;;;;;;22.90;55.60;;;;;;5057123;28;19928;-78
2023/05/02 13:55:07;;;;;;;;;;;22.80;56.20;;;;;;5036806;28;19932;-78
2023/05/02 13:57:34;;;;;;;;;;;22.80;56.70;;;;;;5058802;28;19928;-79
2023/05/02 14:00:01;;;;;;;;;;;22.80;56.20;;;;;;5036760;28;19936;-80
2023/05/02 14:02:30;;;;;;;;;;;22.70;57.10;;;;;;5053012;28;19932;-79
2023/05/02 14:04:57;;;;;;;;;;;22.70;56.50;;;;;;5034015;28;20107;-79
2023/05/02 14:07:26;;;;;;;;;;;22.70;57.00;;;;;;5043856;28;19932;-79
2023/05/02 14:09:54;;;;;;;;;;;22.70;57.10;;;;;;5028187;28;19932;-79
2023/05/02 14:12:21;;;;;;;;;;;22.70;57.20;;;;;;5021748;28;20090;-79
2023/05/02 14:14:48;;;;;;;;;;;22.70;57.90;;;;;;5014953;28;20809;-78
2023/05/02 14:17:15;;;;;;;;;;;22.60;57.60;;;;;;5009269;28;19961;-79
2023/05/02 14:19:42;;;;;;;;;;;22.60;58.30;;;;;;5005547;28;19940;-78
2023/05/02 14:22:09;;;;;;;;;;;22.50;58.10;;;;;;5030425;28;19931;-78
2023/05/02 14:24:36;;;;;;;;;;;22.50;58.20;;;;;;5039379;28;19956;-79
2023/05/02 14:27:03;;;;;;;;;;;22.40;58.50;;;;;;5029163;28;19935;-78
2023/05/02 14:29:32;;;;;;;;;;;22.40;58.30;;;;;;5034308;28;19932;-79